Terminal Aerodrome Forecast
Issued by NWS

Home | Current Version | Previous Version | Text Only | Print | Product List | Glossary On
Versions: 1 2 3 4 5 6 7 8 9 10 11 12 13 14 15 16 17
000
FTUS44 KMAF 060321 CCB
TAFHOB
TAF COR
KHOB 060321Z 0603/0624 17011G21KT P6SM FEW090 SCT200
     FM061200 16009KT P6SM BKN250
     FM061600 17013G23KT P6SM SCT040 SCT070 BKN250=

USA.gov is the U.S. government's official web portal to all federal, state and local government web resources and services.